KDFW

Dallas-Fort Worth International Airport

Dallas-Fort Worth, Texas, USA
METAR KDFW 172153Z 18008KT 10SM FEW050 FEW250 37/19 A2994 RMK AO2 SLP128 CB DSNT W-NW STNRY T03670194
Observed Flight Rules
Aug-17 @ 21:53 UTC (43 minutes ago) Visual Flight Rules
Wind Visibility Clouds
180° at 8 knots 10 miles
  • Few at 5,000' AGL
  • Few at 25,000' AGL
Temperatures Readings
Current 37°C / 99°F
Dewpoint 19°C / 66°F
Humidity 35%
Altimeter 29.94" Hg
Pressure 1012.8 hPa
Elevation 174
METAR KDFW 172153Z 18008KT 10SM FEW050 FEW250 37/19 A2994 RMK AO2 SLP128 CB DSNT W-NW STNRY T03670194
Observed Flight Rules
Aug-17 @ 21:53 UTC
(43 minutes ago)
VFR
Wind Visibility
180° at 8 knots 10 miles
Clouds
  • Few at 5,000' AGL
  • Few at 25,000' AGL
Temperature Dewpoint
37°C / 99°F 19°C / 66°F
Humidity Altimeter Pressure
35% 29.94" Hg 1012.8 hPa